Hlavní strana
METAR-TAF:

METAR-TAF

Letiště :

Brjansk, Rusko

zeměpisná šířka: 53-15N, zeměpisná délka: 034-19E, výška: 217 m

Aktuální stav počasí

Zpráva byla vytvořena před 7 hodinami a 20 minutami, v 15:00 UTC
Jihojihozápadní vítr 2 kt
Teplota 8°C
Vlhkost vzduchu 31%
Tlak 1007 hPa
Viditelnost 10 km a více
Žádná oblačnost pod 1500 m, nevyskytují se cumulonimby.

METAR: UUBP 251500Z 20001MPS CAVOK 08/M08 Q1007 R34/CLRD70 NOSIG RMK QFE738/0984

Čas: 01:20 (22:20 UTC)

Předpověď počasí

Zpráva byla vytvořena před 11 hodinami a 33 minutami, v 10:47 UTC
Předpověď platná od 25 v 12 UTC do 25 v 21 UTC
Západní vítr 6 kt
Viditelnost 10 km a více
Žádná oblačnost pod 1500 m, nevyskytují se cumulonimby.

TAF: UUBP 251047Z 2512/2521 26003MPS CAVOK

Stav a předpovědi počasí z více než 4 000 letišť (zprávy METAR a TAF).

Červené a žluté tečky na mapě představují dostupné meteorologické stanice.

Když kurzor umístíte na tečku, zobrazí se název stanice.

Pak kliknutím zobrazíte stav a předpověď počasí.

Chcete-li změnit mapu, kliknutím na zelené tlačítko se znaménkem +mapu přiblížíte, kliknutím na zelené tlačítko se znaménkem – mapu oddálíte a kliknutím na zelené šipky přejdete na sousední mapy.


METAR-TAF: